createdAt,value
2022-09-12T00:00:03.630Z,13.06
2022-09-12T00:01:03.658Z,13.27
2022-09-12T00:02:03.673Z,13.38
2022-09-12T00:03:03.632Z,13.39
2022-09-12T00:04:03.595Z,13.46
2022-09-12T00:05:03.576Z,13.48
2022-09-12T00:06:03.588Z,13.62
2022-09-12T00:07:03.566Z,13.62
2022-09-12T00:08:03.549Z,13.73
2022-09-12T00:09:03.539Z,13.65
2022-09-12T00:10:03.529Z,13.71
2022-09-12T00:11:03.526Z,13.68
2022-09-12T00:12:03.532Z,13.59
2022-09-12T00:13:03.571Z,13.51
2022-09-12T00:14:03.523Z,13.50
2022-09-12T00:15:03.506Z,13.43
2022-09-12T00:16:03.470Z,13.43
2022-09-12T00:17:03.505Z,13.48
2022-09-12T00:18:03.518Z,13.51
2022-09-12T00:19:03.455Z,13.55
2022-09-12T00:20:03.462Z,13.62
2022-09-12T00:21:03.456Z,13.51
2022-09-12T00:22:03.446Z,13.55
2022-09-12T00:23:03.466Z,13.59
2022-09-12T00:24:03.422Z,13.59
2022-09-12T00:25:03.414Z,13.53
2022-09-12T00:26:03.419Z,13.47
2022-09-12T00:27:03.414Z,13.32
2022-09-12T00:28:03.411Z,13.31
2022-09-12T00:29:03.408Z,12.96
2022-09-12T00:30:03.384Z,12.66
2022-09-12T00:31:03.359Z,12.43
2022-09-12T00:32:03.375Z,12.16
2022-09-12T00:33:03.349Z,11.98
2022-09-12T00:34:03.341Z,11.90
2022-09-12T00:35:03.375Z,11.96
2022-09-12T00:36:03.316Z,11.96
2022-09-12T00:37:03.465Z,12.12
2022-09-12T00:38:03.363Z,12.19
2022-09-12T00:39:03.339Z,12.37
2022-09-12T00:40:03.426Z,12.52
2022-09-12T00:41:03.282Z,12.59
2022-09-12T00:42:03.272Z,12.66
2022-09-12T00:43:03.287Z,12.71
2022-09-12T00:44:03.254Z,12.77
2022-09-12T00:45:03.277Z,12.88
2022-09-12T00:46:03.237Z,12.92
2022-09-12T00:47:03.232Z,12.94
2022-09-12T00:48:03.255Z,12.91
2022-09-12T00:49:03.221Z,12.95
2022-09-12T00:50:03.244Z,13.04
2022-09-12T00:51:03.186Z,12.99
2022-09-12T00:52:03.204Z,13.12
2022-09-12T00:53:03.191Z,13.06
2022-09-12T00:54:03.216Z,13.12
2022-09-12T00:55:03.171Z,13.06
2022-09-12T00:56:03.162Z,13.16
2022-09-12T00:57:03.213Z,13.16
2022-09-12T00:58:03.134Z,13.13
2022-09-12T00:59:03.150Z,13.09
2022-09-12T01:00:03.121Z,12.99
2022-09-12T01:01:03.208Z,12.91
2022-09-12T01:02:03.257Z,12.98
2022-09-12T01:03:03.314Z,12.92
2022-09-12T01:04:03.090Z,13.01
2022-09-12T01:05:03.091Z,13.03
2022-09-12T01:06:03.090Z,13.01
2022-09-12T01:07:03.095Z,13.07
2022-09-12T01:08:03.052Z,13.10
2022-09-12T01:09:03.025Z,13.06
2022-09-12T01:10:03.041Z,13.01
2022-09-12T01:11:03.033Z,13.07
2022-09-12T01:12:03.072Z,13.09
2022-09-12T01:13:03.036Z,13.13
2022-09-12T01:14:03.009Z,13.13
2022-09-12T01:15:03.005Z,13.13
2022-09-12T01:16:03.060Z,13.16
2022-09-12T01:17:02.989Z,13.17
2022-09-12T01:18:03.030Z,13.13
2022-09-12T01:19:03.133Z,13.17
2022-09-12T01:20:02.972Z,13.22
2022-09-12T01:21:02.961Z,13.19
2022-09-12T01:22:02.927Z,13.12
2022-09-12T01:23:02.909Z,12.98
2022-09-12T01:24:02.959Z,12.88
2022-09-12T01:25:02.910Z,12.85
2022-09-12T01:26:02.908Z,12.80
2022-09-12T01:27:02.887Z,12.67
2022-09-12T01:28:02.881Z,12.79
2022-09-12T01:29:02.882Z,12.77
2022-09-12T01:30:03.886Z,12.92
2022-09-12T01:31:02.871Z,12.81
2022-09-12T01:32:02.888Z,12.94
2022-09-12T01:33:02.909Z,12.94
2022-09-12T01:34:02.861Z,12.91
2022-09-12T01:35:02.871Z,12.91
2022-09-12T01:36:02.873Z,12.89
2022-09-12T01:37:02.824Z,13.07
2022-09-12T01:38:02.854Z,13.04
2022-09-12T01:39:02.793Z,13.03
2022-09-12T01:40:02.869Z,13.03
2022-09-12T01:41:02.818Z,13.04
2022-09-12T01:42:02.794Z,13.16
2022-09-12T01:43:02.784Z,13.17
2022-09-12T01:44:02.764Z,13.17
2022-09-12T01:45:02.770Z,13.10
2022-09-12T01:46:02.838Z,13.10
2022-09-12T01:47:02.912Z,13.17
2022-09-12T01:48:02.745Z,13.24
2022-09-12T01:49:02.722Z,13.14
2022-09-12T01:50:02.719Z,13.12
2022-09-12T01:51:02.708Z,13.16
2022-09-12T01:52:02.715Z,13.17
2022-09-12T01:53:02.678Z,13.21
2022-09-12T01:54:02.702Z,13.19
2022-09-12T01:55:06.490Z,13.09
2022-09-12T01:56:03.688Z,13.12
2022-09-12T01:57:02.659Z,13.12
2022-09-12T01:58:02.688Z,13.06
2022-09-12T01:59:02.655Z,13.09
2022-09-12T02:00:02.631Z,13.03
2022-09-12T02:01:02.688Z,13.03
2022-09-12T02:02:02.646Z,13.03
2022-09-12T02:03:03.628Z,13.07
2022-09-12T02:04:02.611Z,13.01
2022-09-12T02:05:02.616Z,13.04
2022-09-12T02:06:02.608Z,13.03
2022-09-12T02:07:02.602Z,13.01
2022-09-12T02:08:02.602Z,12.95
2022-09-12T02:09:02.550Z,12.98
2022-09-12T02:10:02.576Z,12.95
2022-09-12T02:11:02.547Z,13.03
2022-09-12T02:12:02.565Z,12.91
2022-09-12T02:13:02.566Z,12.95
2022-09-12T02:14:02.563Z,12.96
2022-09-12T02:15:02.513Z,12.87
2022-09-12T02:16:03.506Z,12.61
2022-09-12T02:17:02.550Z,12.38
2022-09-12T02:18:02.483Z,12.05
2022-09-12T02:19:02.506Z,11.94
2022-09-12T02:20:02.481Z,11.90
2022-09-12T02:21:02.495Z,11.90
2022-09-12T02:22:02.530Z,11.94
2022-09-12T02:23:02.495Z,12.05
2022-09-12T02:24:02.504Z,12.15
2022-09-12T02:25:02.454Z,12.25
2022-09-12T02:26:02.426Z,12.25
2022-09-12T02:27:02.420Z,12.46
2022-09-12T02:28:02.418Z,12.51
2022-09-12T02:29:02.468Z,12.43
2022-09-12T02:30:02.423Z,12.58
2022-09-12T02:31:02.409Z,12.56
2022-09-12T02:32:02.433Z,12.58
2022-09-12T02:33:02.389Z,12.59
2022-09-12T02:34:02.365Z,12.73
2022-09-12T02:35:02.372Z,12.67
2022-09-12T02:36:02.356Z,12.67
2022-09-12T02:37:02.391Z,12.66
2022-09-12T02:38:02.360Z,12.62
2022-09-12T02:39:02.342Z,12.67
2022-09-12T02:40:02.407Z,12.63
2022-09-12T02:41:02.317Z,12.56
2022-09-12T02:42:02.329Z,12.52
2022-09-12T02:43:02.308Z,12.46
2022-09-12T02:44:02.291Z,12.52
2022-09-12T02:45:03.328Z,12.43
2022-09-12T02:46:02.321Z,12.52
2022-09-12T02:47:02.268Z,12.54
2022-09-12T02:48:02.305Z,12.43
2022-09-12T02:49:02.272Z,12.55
2022-09-12T02:50:02.265Z,12.46
2022-09-12T02:51:02.255Z,12.40
2022-09-12T02:52:02.246Z,12.44
2022-09-12T02:53:02.242Z,12.44
2022-09-12T02:54:02.215Z,12.54
2022-09-12T02:55:02.225Z,12.49
2022-09-12T02:56:02.210Z,12.44
2022-09-12T02:57:02.208Z,12.40
2022-09-12T02:58:02.232Z,12.49
2022-09-12T02:59:02.207Z,12.13
2022-09-12T03:00:02.154Z,11.49
2022-09-12T03:01:02.236Z,11.19
2022-09-12T03:02:02.197Z,10.90
2022-09-12T03:03:02.153Z,10.69
2022-09-12T03:04:02.155Z,10.70
2022-09-12T03:05:02.169Z,10.91
2022-09-12T03:06:02.124Z,10.86
2022-09-12T03:07:02.109Z,10.94
2022-09-12T03:08:02.127Z,11.03
2022-09-12T03:09:02.111Z,11.17
2022-09-12T03:10:02.122Z,11.13
2022-09-12T03:11:02.093Z,11.30
2022-09-12T03:12:02.081Z,11.31
2022-09-12T03:13:02.063Z,11.48
2022-09-12T03:14:02.047Z,11.53
2022-09-12T03:15:02.094Z,11.64
2022-09-12T03:16:02.089Z,11.72
2022-09-12T03:17:02.027Z,11.79
2022-09-12T03:18:02.036Z,11.84
2022-09-12T03:19:02.028Z,11.88
2022-09-12T03:20:02.104Z,11.88
2022-09-12T03:21:02.047Z,12.12
2022-09-12T03:22:02.097Z,12.05
2022-09-12T03:23:02.003Z,12.11
2022-09-12T03:24:02.002Z,12.07
2022-09-12T03:25:01.998Z,12.04
2022-09-12T03:26:01.987Z,11.81
2022-09-12T03:27:01.953Z,11.54
2022-09-12T03:28:01.951Z,11.63
2022-09-12T03:29:01.955Z,11.59
2022-09-12T03:30:01.942Z,11.64
2022-09-12T03:31:02.018Z,11.72
2022-09-12T03:32:02.032Z,11.70
2022-09-12T03:33:01.938Z,11.75
2022-09-12T03:34:01.899Z,11.88
2022-09-12T03:35:02.024Z,11.90
2022-09-12T03:36:01.911Z,11.96
2022-09-12T03:37:01.913Z,12.15
2022-09-12T03:38:01.902Z,12.07
2022-09-12T03:39:01.858Z,12.07
2022-09-12T03:40:02.882Z,12.26
2022-09-12T03:41:01.871Z,12.22
2022-09-12T03:42:01.841Z,12.38
2022-09-12T03:43:01.864Z,12.40
2022-09-12T03:44:01.824Z,12.38
2022-09-12T03:45:01.814Z,12.38
2022-09-12T03:46:01.843Z,12.44
2022-09-12T03:47:01.793Z,12.49
2022-09-12T03:48:01.819Z,12.49
2022-09-12T03:49:01.799Z,12.44
2022-09-12T03:50:01.798Z,12.61
2022-09-12T03:51:01.785Z,12.41
2022-09-12T03:52:01.771Z,12.41
2022-09-12T03:53:01.773Z,12.46
2022-09-12T03:54:01.771Z,12.59
2022-09-12T03:55:01.759Z,12.54
2022-09-12T03:56:01.789Z,12.63
2022-09-12T03:57:01.741Z,12.54
2022-09-12T03:58:01.738Z,12.69
2022-09-12T03:59:01.729Z,12.67
2022-09-12T04:00:01.697Z,12.61
2022-09-12T04:01:01.742Z,12.63
2022-09-12T04:02:01.735Z,12.58
2022-09-12T04:03:01.670Z,12.59
2022-09-12T04:04:01.708Z,12.66
2022-09-12T04:05:01.692Z,12.58
2022-09-12T04:06:01.667Z,12.52
2022-09-12T04:07:01.688Z,12.56
2022-09-12T04:08:01.640Z,12.62
2022-09-12T04:09:01.741Z,12.61
2022-09-12T04:10:01.656Z,12.62
2022-09-12T04:11:01.655Z,12.69
2022-09-12T04:12:01.642Z,12.66
2022-09-12T04:13:01.606Z,12.61
2022-09-12T04:14:01.617Z,12.59
2022-09-12T04:15:01.608Z,12.55
2022-09-12T04:16:01.616Z,12.61
2022-09-12T04:17:01.587Z,12.54
2022-09-12T04:18:05.775Z,12.56
2022-09-12T04:19:02.547Z,12.55
2022-09-12T04:20:01.570Z,12.55
2022-09-12T04:21:01.550Z,12.55
2022-09-12T04:22:01.606Z,12.52
2022-09-12T04:23:01.550Z,12.58
2022-09-12T04:24:01.507Z,12.55
2022-09-12T04:25:01.508Z,12.54
2022-09-12T04:26:01.506Z,12.63
2022-09-12T04:27:05.940Z,12.66
2022-09-12T04:28:02.491Z,12.59
2022-09-12T04:29:01.478Z,12.71
2022-09-12T04:30:01.467Z,12.59
2022-09-12T04:31:01.522Z,12.62
2022-09-12T04:32:01.486Z,12.63
2022-09-12T04:33:03.903Z,12.38
2022-09-12T04:34:02.431Z,12.34
2022-09-12T04:35:01.459Z,12.12
2022-09-12T04:36:01.414Z,12.08
2022-09-12T04:37:01.477Z,12.18
2022-09-12T04:38:01.425Z,12.13
2022-09-12T04:39:01.421Z,12.08
2022-09-12T04:40:01.439Z,12.12
2022-09-12T04:41:01.412Z,12.23
2022-09-12T04:42:01.417Z,12.23
2022-09-12T04:43:01.377Z,12.21
2022-09-12T04:44:01.407Z,12.36
2022-09-12T04:45:01.378Z,12.33
2022-09-12T04:46:01.428Z,12.34
2022-09-12T04:47:01.452Z,12.44
2022-09-12T04:48:01.325Z,12.37
2022-09-12T04:49:01.339Z,12.40
2022-09-12T04:50:01.314Z,12.44
2022-09-12T04:51:01.310Z,12.49
2022-09-12T04:52:01.319Z,12.49
2022-09-12T04:53:01.290Z,12.48
2022-09-12T04:54:01.304Z,12.54
2022-09-12T04:55:01.291Z,12.56
2022-09-12T04:56:01.320Z,12.63
2022-09-12T04:57:01.314Z,12.56
2022-09-12T04:58:01.301Z,12.52
2022-09-12T04:59:01.277Z,12.37
2022-09-12T05:00:06.528Z,12.31
2022-09-12T05:01:03.245Z,12.22
2022-09-12T05:02:01.270Z,12.07
2022-09-12T05:03:01.250Z,11.74
2022-09-12T05:04:01.251Z,11.67
2022-09-12T05:05:01.210Z,11.69
2022-09-12T05:06:01.202Z,11.69
2022-09-12T05:07:01.186Z,11.63
2022-09-12T05:08:01.194Z,11.63
2022-09-12T05:09:01.165Z,11.66
2022-09-12T05:10:01.205Z,11.60
2022-09-12T05:11:01.180Z,11.66
2022-09-12T05:12:05.453Z,11.70
2022-09-12T05:13:02.161Z,11.82
2022-09-12T05:14:01.154Z,11.87
2022-09-12T05:15:01.127Z,11.98
2022-09-12T05:16:01.133Z,11.94
2022-09-12T05:17:01.354Z,11.85
2022-09-12T05:18:01.128Z,11.85
2022-09-12T05:19:01.161Z,11.93
2022-09-12T05:20:01.141Z,11.85
2022-09-12T05:21:01.164Z,11.98
2022-09-12T05:22:01.106Z,12.11
2022-09-12T05:23:01.065Z,12.16
2022-09-12T05:24:01.068Z,12.21
2022-09-12T05:25:01.089Z,12.13
2022-09-12T05:26:01.055Z,12.22
2022-09-12T05:27:01.069Z,12.38
2022-09-12T05:28:01.038Z,12.40
2022-09-12T05:29:01.048Z,12.44
2022-09-12T05:30:01.064Z,12.43
2022-09-12T05:31:01.048Z,12.58
2022-09-12T05:32:00.985Z,12.55
2022-09-12T05:33:01.012Z,12.61
2022-09-12T05:34:01.016Z,12.67
2022-09-12T05:35:01.006Z,12.66
2022-09-12T05:36:00.970Z,12.80
2022-09-12T05:37:01.103Z,12.70
2022-09-12T05:38:01.036Z,12.74
2022-09-12T05:39:00.923Z,12.74
2022-09-12T05:40:01.018Z,12.77
2022-09-12T05:41:00.924Z,12.79
2022-09-12T05:42:00.972Z,12.77
2022-09-12T05:43:00.919Z,12.70
2022-09-12T05:44:00.927Z,12.55
2022-09-12T05:45:00.932Z,12.58
2022-09-12T05:46:00.989Z,12.34
2022-09-12T05:47:00.895Z,12.43
2022-09-12T05:48:00.890Z,12.52
2022-09-12T05:49:00.866Z,12.22
2022-09-12T05:50:00.882Z,12.19
2022-09-12T05:51:00.858Z,12.19
2022-09-12T05:52:00.896Z,12.13
2022-09-12T05:53:00.856Z,12.13
2022-09-12T05:54:00.869Z,12.15
2022-09-12T05:55:00.823Z,12.19
2022-09-12T05:56:00.861Z,12.31
2022-09-12T05:57:00.872Z,12.33
2022-09-12T05:58:00.820Z,12.29
2022-09-12T05:59:00.792Z,12.40
2022-09-12T06:00:00.781Z,12.43
2022-09-12T06:01:00.821Z,12.44
2022-09-12T06:02:00.836Z,12.56
2022-09-12T06:03:00.779Z,12.67
2022-09-12T06:04:00.829Z,12.73
2022-09-12T06:05:00.762Z,12.81
2022-09-12T06:06:00.753Z,12.81
2022-09-12T06:07:00.892Z,12.95
2022-09-12T06:08:00.801Z,12.95
2022-09-12T06:09:00.777Z,12.99
2022-09-12T06:10:00.731Z,13.01
2022-09-12T06:11:02.404Z,13.04
2022-09-12T06:12:01.744Z,13.16
2022-09-12T06:13:00.710Z,13.09
2022-09-12T06:14:00.686Z,13.09
2022-09-12T06:15:00.673Z,12.98
2022-09-12T06:16:00.667Z,13.07
2022-09-12T06:17:00.696Z,13.07
2022-09-12T06:18:00.664Z,13.09
2022-09-12T06:19:00.673Z,13.13
2022-09-12T06:20:00.668Z,13.07
2022-09-12T06:21:00.631Z,12.96
2022-09-12T06:22:00.634Z,12.79
2022-09-12T06:23:00.621Z,12.88
2022-09-12T06:24:01.628Z,12.91
2022-09-12T06:25:00.614Z,12.92
2022-09-12T06:26:00.619Z,12.88
2022-09-12T06:27:00.628Z,12.70
2022-09-12T06:28:00.608Z,12.13
2022-09-12T06:29:00.601Z,12.08
2022-09-12T06:30:00.578Z,12.04
2022-09-12T06:31:00.619Z,12.05
2022-09-12T06:32:00.568Z,11.97
2022-09-12T06:33:00.574Z,11.87
2022-09-12T06:34:00.558Z,12.00
2022-09-12T06:35:00.563Z,11.97
2022-09-12T06:36:00.531Z,12.13
2022-09-12T06:37:00.525Z,12.23
2022-09-12T06:38:00.514Z,12.49
2022-09-12T06:39:00.554Z,12.54
2022-09-12T06:40:02.044Z,12.46
2022-09-12T06:41:00.557Z,12.16
2022-09-12T06:42:00.564Z,11.75
2022-09-12T06:43:00.531Z,11.75
2022-09-12T06:44:00.440Z,11.82
2022-09-12T06:45:00.432Z,12.05
2022-09-12T06:46:00.542Z,12.22
2022-09-12T06:47:00.491Z,12.41
2022-09-12T06:48:00.422Z,12.55
2022-09-12T06:49:00.412Z,12.36
2022-09-12T06:50:00.416Z,12.18
2022-09-12T06:51:00.412Z,12.15
2022-09-12T06:52:00.444Z,12.08
2022-09-12T06:53:00.396Z,11.84
2022-09-12T06:54:00.372Z,11.69
2022-09-12T06:55:00.399Z,11.64
2022-09-12T06:56:00.345Z,11.96
2022-09-12T06:57:00.377Z,12.07
2022-09-12T06:58:00.330Z,12.21
2022-09-12T06:59:00.368Z,12.36
2022-09-12T07:00:00.318Z,12.23
2022-09-12T07:01:00.395Z,12.12
2022-09-12T07:02:00.337Z,11.97
2022-09-12T07:03:00.298Z,11.98
2022-09-12T07:04:00.354Z,11.94
2022-09-12T07:05:00.314Z,12.03
2022-09-12T07:06:00.286Z,12.19
2022-09-12T07:07:00.278Z,12.41
2022-09-12T07:08:00.257Z,12.52
2022-09-12T07:09:00.315Z,12.52
2022-09-12T07:10:00.257Z,12.36
2022-09-12T07:11:00.241Z,12.19
2022-09-12T07:12:00.227Z,12.34
2022-09-12T07:13:00.220Z,12.44
2022-09-12T07:14:00.253Z,12.46
2022-09-12T07:15:00.212Z,12.66
2022-09-12T07:16:00.184Z,12.66
2022-09-12T07:17:00.254Z,12.58
2022-09-12T07:18:00.189Z,12.51
2022-09-12T07:19:00.186Z,12.23
2022-09-12T07:20:00.242Z,12.19
2022-09-12T07:21:00.224Z,12.23
2022-09-12T07:22:00.170Z,12.16
2022-09-12T07:23:00.130Z,12.38
2022-09-12T07:24:00.157Z,12.44
2022-09-12T07:25:00.142Z,12.69
2022-09-12T07:26:00.134Z,12.77
2022-09-12T07:27:00.179Z,12.89
2022-09-12T07:28:00.107Z,13.01
2022-09-12T07:29:25.250Z,13.16
2022-09-12T07:30:02.177Z,13.36
2022-09-12T07:31:00.099Z,13.41
2022-09-12T07:32:00.167Z,13.51
2022-09-12T07:33:00.051Z,13.69
2022-09-12T07:34:00.050Z,13.76
2022-09-12T07:35:00.060Z,13.88
2022-09-12T07:36:00.070Z,13.96
2022-09-12T07:37:00.062Z,13.96
2022-09-12T07:38:00.009Z,14.02
2022-09-12T07:39:00.078Z,14.11
2022-09-12T07:40:00.092Z,14.13
2022-09-12T07:41:00.008Z,14.19
2022-09-12T07:42:00.145Z,14.20
2022-09-12T07:42:59.973Z,14.31
2022-09-12T07:43:59.967Z,14.41
2022-09-12T07:44:59.977Z,14.35
2022-09-12T07:45:59.980Z,14.52
2022-09-12T07:46:59.971Z,14.49
2022-09-12T07:47:59.969Z,14.52
2022-09-12T07:48:59.965Z,14.53
2022-09-12T07:49:59.909Z,14.54
2022-09-12T07:50:59.923Z,14.45
2022-09-12T07:51:59.900Z,14.54
2022-09-12T07:52:59.901Z,14.53
2022-09-12T07:53:59.931Z,14.64
2022-09-12T07:54:59.886Z,14.60
2022-09-12T07:55:59.874Z,14.71
2022-09-12T07:56:59.884Z,14.69
2022-09-12T07:57:59.875Z,14.75
2022-09-12T07:58:59.887Z,14.75
2022-09-12T07:59:59.848Z,14.54
2022-09-12T08:00:59.881Z,14.52
2022-09-12T08:01:59.879Z,14.71
2022-09-12T08:02:59.822Z,14.79
2022-09-12T08:03:59.845Z,14.80
2022-09-12T08:04:59.809Z,14.72
2022-09-12T08:05:59.814Z,14.83
2022-09-12T08:06:59.854Z,14.86
2022-09-12T08:07:59.781Z,14.91
2022-09-12T08:08:59.794Z,14.98
2022-09-12T08:09:59.823Z,15.04
2022-09-12T08:10:59.764Z,14.97
2022-09-12T08:11:59.784Z,14.86
2022-09-12T08:12:59.765Z,14.66
2022-09-12T08:13:59.773Z,14.74
2022-09-12T08:14:59.734Z,14.67
2022-09-12T08:15:59.805Z,14.67
2022-09-12T08:16:59.756Z,14.56
2022-09-12T08:17:59.728Z,14.34
2022-09-12T08:18:59.720Z,14.38
2022-09-12T08:19:59.715Z,14.41
2022-09-12T08:20:59.714Z,14.31
2022-09-12T08:21:59.710Z,14.39
2022-09-12T08:22:59.762Z,14.52
2022-09-12T08:23:59.689Z,14.53
2022-09-12T08:24:59.668Z,14.61
2022-09-12T08:26:02.147Z,14.71
2022-09-12T08:26:59.761Z,14.60
2022-09-12T08:28:00.536Z,14.48
2022-09-12T08:28:59.649Z,14.57
2022-09-12T08:29:59.650Z,14.67
2022-09-12T08:30:59.686Z,14.79
2022-09-12T08:31:59.691Z,14.93
2022-09-12T08:32:59.622Z,14.95
2022-09-12T08:33:59.612Z,14.85
2022-09-12T08:34:59.658Z,14.87
2022-09-12T08:35:59.602Z,14.98
2022-09-12T08:36:59.608Z,15.09
2022-09-12T08:37:59.596Z,14.90
2022-09-12T08:39:00.515Z,14.59
2022-09-12T08:40:00.672Z,14.59
2022-09-12T08:40:59.679Z,14.29
2022-09-12T08:41:59.739Z,14.19
2022-09-12T08:42:59.536Z,14.31
2022-09-12T08:43:59.571Z,14.13
2022-09-12T08:44:59.554Z,13.71
2022-09-12T08:45:59.565Z,13.47
2022-09-12T08:46:59.533Z,13.59
2022-09-12T08:47:59.513Z,13.83
2022-09-12T08:48:59.505Z,14.06
2022-09-12T08:49:59.511Z,14.23
2022-09-12T08:50:59.494Z,14.45
2022-09-12T08:51:59.494Z,14.71
2022-09-12T08:52:59.484Z,14.80
2022-09-12T08:53:59.462Z,14.85
2022-09-12T08:54:59.480Z,15.16
2022-09-12T08:55:59.506Z,15.34
2022-09-12T08:56:59.481Z,15.49
2022-09-12T08:57:59.425Z,15.56
2022-09-12T08:58:59.424Z,14.97
2022-09-12T08:59:59.558Z,14.52
2022-09-12T09:00:59.415Z,14.45
2022-09-12T09:01:59.454Z,14.56
2022-09-12T09:02:59.479Z,14.78
2022-09-12T09:03:59.435Z,14.94
2022-09-12T09:04:59.373Z,15.30
2022-09-12T09:05:59.362Z,15.43
2022-09-12T09:06:59.396Z,15.67
2022-09-12T09:07:59.423Z,15.81
2022-09-12T09:08:59.415Z,15.51
2022-09-12T09:09:59.345Z,15.33
2022-09-12T09:10:59.353Z,15.44
2022-09-12T09:11:59.356Z,15.43
2022-09-12T09:12:59.349Z,15.31
2022-09-12T09:14:03.135Z,15.55
2022-09-12T09:15:01.342Z,15.48
2022-09-12T09:15:59.372Z,15.18
2022-09-12T09:16:59.291Z,15.01
2022-09-12T09:17:59.304Z,14.87
2022-09-12T09:18:59.319Z,15.09
2022-09-12T09:19:59.283Z,15.00
2022-09-12T09:20:59.290Z,14.97
2022-09-12T09:21:59.284Z,15.09
2022-09-12T09:22:59.257Z,15.19
2022-09-12T09:23:59.293Z,15.33
2022-09-12T09:24:59.287Z,15.48
2022-09-12T09:25:59.241Z,15.60
2022-09-12T09:26:59.242Z,15.89
2022-09-12T09:27:59.222Z,16.03
2022-09-12T09:28:59.230Z,16.08
2022-09-12T09:29:59.248Z,15.70
2022-09-12T09:30:59.215Z,15.41
2022-09-12T09:31:59.191Z,15.37
2022-09-12T09:32:59.206Z,15.30
2022-09-12T09:33:59.211Z,15.34
2022-09-12T09:34:59.249Z,15.41
2022-09-12T09:35:59.213Z,15.66
2022-09-12T09:36:59.191Z,15.81
2022-09-12T09:37:59.255Z,15.96
2022-09-12T09:38:59.176Z,16.11
2022-09-12T09:39:59.275Z,16.42
2022-09-12T09:40:59.178Z,16.54
2022-09-12T09:41:59.121Z,16.75
2022-09-12T09:42:59.189Z,16.85
2022-09-12T09:43:59.243Z,17.05
2022-09-12T09:44:59.172Z,16.99
2022-09-12T09:45:59.158Z,17.22
2022-09-12T09:46:59.118Z,17.27
2022-09-12T09:47:59.119Z,17.36
2022-09-12T09:48:59.085Z,17.43
2022-09-12T09:49:59.116Z,17.49
2022-09-12T09:50:59.087Z,17.40
2022-09-12T09:52:00.585Z,17.30
2022-09-12T09:52:59.055Z,17.42
2022-09-12T09:53:59.061Z,17.49
2022-09-12T09:54:59.064Z,17.54
2022-09-12T09:55:59.074Z,17.40
2022-09-12T09:56:59.211Z,17.53
2022-09-12T09:57:59.039Z,17.65
2022-09-12T09:58:59.032Z,17.40
2022-09-12T09:59:59.049Z,17.03
2022-09-12T10:00:59.035Z,16.82
2022-09-12T10:01:59.042Z,16.77
2022-09-12T10:02:59.047Z,16.77
2022-09-12T10:03:58.999Z,16.77
2022-09-12T10:04:59.001Z,16.72
2022-09-12T10:05:58.981Z,16.80
2022-09-12T10:06:58.995Z,16.91
2022-09-12T10:07:58.967Z,16.99
2022-09-12T10:08:58.948Z,17.25
2022-09-12T10:09:58.946Z,17.40
2022-09-12T10:10:58.944Z,17.55
2022-09-12T10:11:58.983Z,17.74
2022-09-12T10:12:58.951Z,17.80
2022-09-12T10:13:58.953Z,17.81
2022-09-12T10:14:58.907Z,17.76
2022-09-12T10:15:58.950Z,17.71
2022-09-12T10:16:58.957Z,17.77
2022-09-12T10:17:58.989Z,17.81
2022-09-12T10:18:58.887Z,17.77
2022-09-12T10:20:19.888Z,17.76
2022-09-12T10:21:00.866Z,17.84
2022-09-12T10:21:58.901Z,17.99
2022-09-12T10:22:58.837Z,18.11
2022-09-12T10:23:58.868Z,18.26
2022-09-12T10:24:58.861Z,18.53
2022-09-12T10:25:59.002Z,18.65
2022-09-12T10:26:58.842Z,18.83
2022-09-12T10:27:58.822Z,19.09
2022-09-12T10:28:58.882Z,19.23
2022-09-12T10:29:58.797Z,19.40
2022-09-12T10:30:58.820Z,19.55
2022-09-12T10:31:58.823Z,19.65
2022-09-12T10:32:58.790Z,19.87
2022-09-12T10:33:58.779Z,19.82
2022-09-12T10:34:58.786Z,19.68
2022-09-12T10:35:58.791Z,19.76
2022-09-12T10:36:58.832Z,19.85
2022-09-12T10:37:58.763Z,19.94
2022-09-12T10:38:58.771Z,19.90
2022-09-12T10:39:58.796Z,20.13
2022-09-12T10:40:58.753Z,20.23
2022-09-12T10:41:58.727Z,20.19
2022-09-12T10:42:58.766Z,20.37
2022-09-12T10:43:58.748Z,20.48
2022-09-12T10:44:58.754Z,20.68
2022-09-12T10:45:58.740Z,20.69
2022-09-12T10:46:58.723Z,20.69
2022-09-12T10:47:58.682Z,20.82
2022-09-12T10:48:58.718Z,20.88
2022-09-12T10:49:58.704Z,20.90
2022-09-12T10:50:58.717Z,20.97
2022-09-12T10:51:58.713Z,21.12
2022-09-12T10:52:58.691Z,21.13
2022-09-12T10:53:58.674Z,21.12
2022-09-12T10:54:58.832Z,21.12
2022-09-12T10:55:58.667Z,21.22
2022-09-12T10:56:58.642Z,21.26
2022-09-12T10:57:58.629Z,21.30
2022-09-12T10:58:58.614Z,21.15
2022-09-12T10:59:58.660Z,21.18
2022-09-12T11:00:58.636Z,21.09
2022-09-12T11:01:58.646Z,21.12
2022-09-12T11:02:58.605Z,21.16
2022-09-12T11:03:58.599Z,20.85
2022-09-12T11:04:58.609Z,20.78
2022-09-12T11:05:58.576Z,20.69
2022-09-12T11:06:58.550Z,20.51
2022-09-12T11:07:58.605Z,20.63
2022-09-12T11:08:58.591Z,20.73
2022-09-12T11:09:58.594Z,20.61
2022-09-12T11:10:58.547Z,20.50
2022-09-12T11:11:58.539Z,20.51
2022-09-12T11:12:58.544Z,20.51
2022-09-12T11:13:58.585Z,20.31
2022-09-12T11:14:58.579Z,20.38
2022-09-12T11:15:58.549Z,20.26
2022-09-12T11:16:58.504Z,20.17
2022-09-12T11:17:58.581Z,20.37
2022-09-12T11:18:58.645Z,20.54
2022-09-12T11:19:58.489Z,20.69
2022-09-12T11:20:58.467Z,20.76
2022-09-12T11:21:58.468Z,20.79
2022-09-12T11:22:58.488Z,20.98
2022-09-12T11:23:58.472Z,20.97
2022-09-12T11:24:58.473Z,21.03
2022-09-12T11:25:58.493Z,20.98
2022-09-12T11:26:58.449Z,21.15
2022-09-12T11:27:58.451Z,21.06
2022-09-12T11:28:58.601Z,20.75
2022-09-12T11:29:58.439Z,20.53
2022-09-12T11:30:58.489Z,20.71
2022-09-12T11:31:58.417Z,20.71
2022-09-12T11:32:58.406Z,20.82
2022-09-12T11:33:58.386Z,21.03
2022-09-12T11:34:58.458Z,21.09
2022-09-12T11:35:58.434Z,21.18
2022-09-12T11:36:58.363Z,21.37
2022-09-12T11:37:58.440Z,21.43
2022-09-12T11:38:58.354Z,21.63
2022-09-12T11:39:58.403Z,21.73
2022-09-12T11:40:58.346Z,21.85
2022-09-12T11:41:58.482Z,21.86
2022-09-12T11:42:58.466Z,21.99
2022-09-12T11:43:58.368Z,21.99
2022-09-12T11:44:58.371Z,21.94
2022-09-12T11:45:58.362Z,22.06
2022-09-12T11:46:58.290Z,21.98
2022-09-12T11:47:58.298Z,22.19
2022-09-12T11:48:58.322Z,22.12
2022-09-12T11:49:58.320Z,22.39
2022-09-12T11:50:58.279Z,22.51
2022-09-12T11:51:59.260Z,22.69
2022-09-12T11:52:58.305Z,22.91
2022-09-12T11:53:58.292Z,23.04
2022-09-12T11:54:58.270Z,23.07
2022-09-12T11:55:58.243Z,22.74
2022-09-12T11:56:58.219Z,22.69
2022-09-12T11:57:58.234Z,22.42
2022-09-12T11:58:58.230Z,21.96
2022-09-12T11:59:58.248Z,21.85
2022-09-12T12:00:58.214Z,22.14
2022-09-12T12:01:58.386Z,22.36
2022-09-12T12:02:58.190Z,22.52
2022-09-12T12:03:58.281Z,22.74
2022-09-12T12:04:58.223Z,22.93
2022-09-12T12:05:58.198Z,22.88
2022-09-12T12:06:58.183Z,22.84
2022-09-12T12:07:58.149Z,22.76
2022-09-12T12:08:58.209Z,22.54
2022-09-12T12:09:58.158Z,22.48
2022-09-12T12:10:58.144Z,22.51
2022-09-12T12:11:58.207Z,22.35
2022-09-12T12:12:58.237Z,22.30
2022-09-12T12:13:58.141Z,22.41
2022-09-12T12:14:58.119Z,22.06
2022-09-12T12:15:58.225Z,21.91
2022-09-12T12:16:58.148Z,21.79
2022-09-12T12:17:58.103Z,21.58
2022-09-12T12:18:58.118Z,21.68
2022-09-12T12:20:01.072Z,21.59
2022-09-12T12:21:00.084Z,21.67
2022-09-12T12:21:58.175Z,21.73
2022-09-12T12:22:58.123Z,21.90
2022-09-12T12:23:58.128Z,22.04
2022-09-12T12:24:58.054Z,22.05
2022-09-12T12:25:58.064Z,22.11
2022-09-12T12:26:58.048Z,22.24
2022-09-12T12:27:58.039Z,22.27
2022-09-12T12:28:58.049Z,21.99
2022-09-12T12:29:58.005Z,21.90
2022-09-12T12:30:58.035Z,21.82
2022-09-12T12:31:58.042Z,21.83
2022-09-12T12:32:58.010Z,21.89
2022-09-12T12:33:57.987Z,22.05
2022-09-12T12:34:57.976Z,21.99
2022-09-12T12:35:57.979Z,21.79
2022-09-12T12:36:58.008Z,22.05
2022-09-12T12:37:57.965Z,22.06
2022-09-12T12:38:57.991Z,22.27
2022-09-12T12:39:58.018Z,22.24
2022-09-12T12:40:57.954Z,22.23
2022-09-12T12:41:57.950Z,22.24
2022-09-12T12:42:57.959Z,22.45
2022-09-12T12:43:57.961Z,22.59
2022-09-12T12:44:57.920Z,22.11
2022-09-12T12:45:57.948Z,21.86
2022-09-12T12:46:57.910Z,22.14
2022-09-12T12:47:57.903Z,22.45
2022-09-12T12:48:57.920Z,22.69
2022-09-12T12:49:57.889Z,22.91
2022-09-12T12:50:57.925Z,23.12
2022-09-12T12:51:57.856Z,23.38